createdAt,value
2019-04-10T00:00:23.080Z,84.77
2019-04-10T00:02:51.692Z,81.43
2019-04-10T00:05:20.243Z,81.03
2019-04-10T00:07:48.729Z,77.53
2019-04-10T00:10:17.196Z,78.73
2019-04-10T00:12:45.703Z,78.40
2019-04-10T00:15:16.826Z,76.70
2019-04-10T00:17:45.069Z,80.27
2019-04-10T00:20:13.836Z,77.10
2019-04-10T00:22:42.399Z,74.23
2019-04-10T00:25:11.104Z,77.13
2019-04-10T00:27:39.600Z,75.10
2019-04-10T00:30:09.092Z,72.70
2019-04-10T00:32:38.329Z,75.40
2019-04-10T00:35:06.972Z,68.70
2019-04-10T00:37:35.460Z,75.73
2019-04-10T00:40:05.582Z,76.70
2019-04-10T00:42:34.878Z,73.17
2019-04-10T00:45:04.764Z,71.60
2019-04-10T00:47:33.329Z,69.30
2019-04-10T00:50:02.371Z,73.20
2019-04-10T00:52:30.976Z,72.43
2019-04-10T00:54:59.508Z,69.07
2019-04-10T00:57:27.997Z,69.93
2019-04-10T00:59:56.822Z,70.93
2019-04-10T01:02:25.418Z,68.23
2019-04-10T01:04:54.960Z,65.37
2019-04-10T01:07:34.476Z,70.17
2019-04-10T01:09:53.800Z,70.30
2019-04-10T01:12:22.295Z,67.80
2019-04-10T01:14:50.857Z,73.30
2019-04-10T01:17:19.405Z,69.23
2019-04-10T01:19:48.139Z,72.47
2019-04-10T01:22:17.043Z,71.93
2019-04-10T01:24:46.069Z,69.67
2019-04-10T01:27:14.613Z,71.47
2019-04-10T01:29:43.967Z,72.87
2019-04-10T01:32:12.516Z,72.17
2019-04-10T01:34:41.287Z,68.97
2019-04-10T01:37:10.235Z,68.43
2019-04-10T01:39:40.175Z,71.43
2019-04-10T01:42:09.238Z,70.03
2019-04-10T01:44:38.571Z,69.23
2019-04-10T01:47:07.218Z,70.20
2019-04-10T01:49:35.750Z,66.80
2019-04-10T01:52:04.797Z,67.53
2019-04-10T01:54:33.413Z,68.10
2019-04-10T01:57:02.051Z,69.33
2019-04-10T01:59:32.180Z,70.70
2019-04-10T02:02:05.289Z,69.27
2019-04-10T02:04:33.780Z,72.27
2019-04-10T02:07:02.288Z,71.20
2019-04-10T02:09:31.765Z,68.77
2019-04-10T02:12:00.292Z,70.20
2019-04-10T02:14:28.776Z,67.87
2019-04-10T02:16:57.236Z,68.93
2019-04-10T02:19:26.082Z,70.73
2019-04-10T02:21:54.678Z,69.40
2019-04-10T02:24:23.228Z,73.80
2019-04-10T02:26:51.950Z,70.67
2019-04-10T02:29:20.556Z,69.17
2019-04-10T02:31:50.742Z,70.63
2019-04-10T02:34:21.200Z,67.90
2019-04-10T02:36:50.822Z,71.60
2019-04-10T02:39:27.543Z,71.37
2019-04-10T02:41:50.022Z,69.50
2019-04-10T02:44:18.803Z,68.77
2019-04-10T02:46:47.599Z,66.80
2019-04-10T02:49:18.456Z,67.93
2019-04-10T02:51:47.631Z,71.07
2019-04-10T02:54:17.559Z,72.87
2019-04-10T02:56:47.702Z,66.53
2019-04-10T02:59:16.431Z,69.53
2019-04-10T03:01:45.064Z,70.77
2019-04-10T03:04:13.601Z,69.20
2019-04-10T03:06:42.858Z,69.20
2019-04-10T03:09:28.926Z,66.90
2019-04-10T03:11:42.151Z,70.17
2019-04-10T03:14:12.521Z,67.23
2019-04-10T03:16:41.776Z,66.33
2019-04-10T03:19:11.532Z,67.00
2019-04-10T03:21:40.176Z,70.17
2019-04-10T03:24:09.544Z,67.77
2019-04-10T03:26:38.217Z,69.47
2019-04-10T03:29:07.359Z,63.57
2019-04-10T03:31:36.903Z,67.43
2019-04-10T03:34:22.314Z,69.87
2019-04-10T03:36:49.931Z,68.07
2019-04-10T03:39:18.428Z,67.77
2019-04-10T03:41:46.975Z,65.17
2019-04-10T03:44:16.566Z,67.57
2019-04-10T03:46:45.201Z,65.90
2019-04-10T03:49:13.734Z,65.17
2019-04-10T03:51:43.001Z,63.70
2019-04-10T03:54:11.573Z,64.23
2019-04-10T03:56:40.170Z,68.33
2019-04-10T03:59:08.704Z,68.43
2019-04-10T04:01:37.299Z,66.57
2019-04-10T04:04:06.975Z,62.97
2019-04-10T04:06:35.748Z,63.73
2019-04-10T04:09:09.569Z,63.57
2019-04-10T04:11:35.873Z,61.87
2019-04-10T04:14:04.472Z,62.77
2019-04-10T04:16:33.286Z,64.70
2019-04-10T04:19:01.833Z,64.10
2019-04-10T04:21:30.329Z,64.13
2019-04-10T04:23:59.588Z,59.00
2019-04-10T04:26:28.212Z,60.67
2019-04-10T04:28:57.610Z,62.00
2019-04-10T04:31:27.059Z,61.00
2019-04-10T04:33:55.659Z,63.67
2019-04-10T04:36:24.602Z,61.30
2019-04-10T04:38:53.338Z,63.20
2019-04-10T04:41:21.917Z,60.87
2019-04-10T04:43:50.390Z,62.80
2019-04-10T04:46:18.971Z,58.87
2019-04-10T04:48:47.516Z,58.60
2019-04-10T04:51:16.007Z,58.60
2019-04-10T04:53:44.480Z,61.77
2019-04-10T04:56:12.973Z,58.87
2019-04-10T04:58:41.517Z,57.70
2019-04-10T05:01:10.575Z,58.23
2019-04-10T05:03:39.204Z,56.57
2019-04-10T05:06:08.096Z,55.40
2019-04-10T05:08:37.784Z,52.50
2019-04-10T05:11:06.477Z,54.93
2019-04-10T05:13:34.984Z,53.63
2019-04-10T05:16:03.552Z,55.40
2019-04-10T05:18:33.248Z,54.83
2019-04-10T05:21:02.953Z,55.93
2019-04-10T05:23:31.567Z,54.53
2019-04-10T05:26:00.523Z,55.40
2019-04-10T05:28:36.204Z,54.10
2019-04-10T05:31:04.771Z,52.97
2019-04-10T05:33:33.431Z,52.93
2019-04-10T05:36:01.909Z,52.63
2019-04-10T05:38:30.608Z,52.40
2019-04-10T05:40:59.274Z,51.30
2019-04-10T05:43:28.152Z,49.67
2019-04-10T05:45:57.174Z,50.80
2019-04-10T05:48:26.483Z,50.83
2019-04-10T05:51:01.271Z,49.90
2019-04-10T05:53:25.292Z,48.30
2019-04-10T05:55:53.841Z,49.13
2019-04-10T05:58:22.327Z,47.10
2019-04-10T06:00:51.438Z,45.47
2019-04-10T06:03:20.695Z,46.17
2019-04-10T06:05:49.289Z,45.47
2019-04-10T06:08:18.149Z,43.60
2019-04-10T06:10:47.952Z,42.00
2019-04-10T06:13:19.343Z,41.70
2019-04-10T06:15:47.984Z,42.23
2019-04-10T06:18:16.459Z,44.70
2019-04-10T06:20:45.288Z,42.43
2019-04-10T06:23:14.783Z,40.70
2019-04-10T06:25:43.686Z,38.57
2019-04-10T06:28:12.952Z,40.77
2019-04-10T06:30:41.882Z,38.60
2019-04-10T06:33:11.606Z,37.57
2019-04-10T06:35:40.240Z,38.87
2019-04-10T06:38:08.712Z,40.10
2019-04-10T06:40:37.684Z,39.80
2019-04-10T06:43:06.604Z,38.40
2019-04-10T06:45:35.757Z,38.67
2019-04-10T06:48:04.453Z,36.53
2019-04-10T06:50:33.029Z,34.97
2019-04-10T06:53:01.563Z,39.03
2019-04-10T06:55:30.271Z,39.43
2019-04-10T06:57:59.331Z,36.60
2019-04-10T07:00:28.649Z,36.20
2019-04-10T07:02:57.198Z,36.83
2019-04-10T07:05:37.173Z,36.50
2019-04-10T07:08:05.779Z,35.77
2019-04-10T07:10:33.546Z,35.67
2019-04-10T07:12:59.650Z,33.73
2019-04-10T07:15:29.365Z,33.83
2019-04-10T07:17:58.798Z,32.67
2019-04-10T07:20:28.082Z,32.90
2019-04-10T07:22:56.983Z,33.70
2019-04-10T07:25:27.797Z,33.37
2019-04-10T07:27:56.434Z,34.37
2019-04-10T07:30:26.574Z,32.67
2019-04-10T07:32:55.182Z,32.70
2019-04-10T07:35:23.762Z,31.83
2019-04-10T07:37:54.253Z,34.30
2019-04-10T07:40:22.845Z,33.53
2019-04-10T07:42:52.434Z,32.20
2019-04-10T07:45:21.251Z,32.13
2019-04-10T07:47:49.723Z,34.00
2019-04-10T07:50:18.469Z,32.70
2019-04-10T07:52:47.884Z,31.60
2019-04-10T07:55:16.948Z,33.30
2019-04-10T07:57:47.714Z,30.77
2019-04-10T08:00:16.170Z,32.97
2019-04-10T08:02:44.848Z,33.83
2019-04-10T08:05:13.676Z,31.20
2019-04-10T08:07:43.086Z,32.80
2019-04-10T08:10:12.127Z,32.03
2019-04-10T08:12:47.596Z,33.50
2019-04-10T08:15:11.303Z,32.50
2019-04-10T08:17:40.820Z,33.13
2019-04-10T08:20:12.088Z,32.17
2019-04-10T08:22:40.603Z,32.67
2019-04-10T08:25:10.808Z,32.80
2019-04-10T08:27:39.448Z,32.13
2019-04-10T08:30:10.941Z,32.57
2019-04-10T08:32:51.512Z,31.43
2019-04-10T08:35:09.475Z,31.50
2019-04-10T08:37:39.089Z,33.63
2019-04-10T08:40:09.717Z,32.27
2019-04-10T08:42:40.197Z,33.60
2019-04-10T08:45:09.216Z,31.83
2019-04-10T08:47:37.860Z,31.63
2019-04-10T08:50:07.818Z,32.40
2019-04-10T08:52:37.034Z,31.83
2019-04-10T08:55:06.373Z,31.97
2019-04-10T08:57:36.130Z,31.83
2019-04-10T09:00:06.672Z,31.83
2019-04-10T09:02:35.909Z,38.03
2019-04-10T09:05:13.213Z,33.57
2019-04-10T09:07:42.860Z,38.27
2019-04-10T09:10:12.304Z,33.67
2019-04-10T09:12:41.166Z,36.97
2019-04-10T09:15:09.956Z,36.47
2019-04-10T09:17:39.634Z,35.27
2019-04-10T09:20:09.383Z,33.97
2019-04-10T09:23:04.589Z,31.77
2019-04-10T09:25:09.147Z,33.53
2019-04-10T09:27:42.746Z,32.27
2019-04-10T09:30:12.814Z,30.80
2019-04-10T09:32:42.382Z,30.83
2019-04-10T09:35:12.213Z,30.33
2019-04-10T09:37:42.003Z,30.30
2019-04-10T09:40:11.871Z,30.17
2019-04-10T09:42:41.705Z,27.83
2019-04-10T09:45:11.524Z,29.40
2019-04-10T09:47:40.097Z,29.00
2019-04-10T09:50:09.718Z,28.17
2019-04-10T09:52:46.133Z,28.23
2019-04-10T09:55:15.824Z,27.53
2019-04-10T09:57:45.254Z,28.53
2019-04-10T10:00:14.252Z,28.17
2019-04-10T10:02:42.754Z,28.23
2019-04-10T10:05:12.346Z,28.83
2019-04-10T10:07:41.115Z,29.03
2019-04-10T10:10:10.656Z,28.13
2019-04-10T10:12:39.262Z,28.40
2019-04-10T10:15:09.519Z,28.53
2019-04-10T10:17:39.178Z,27.77
2019-04-10T10:20:08.455Z,27.53
2019-04-10T10:22:37.110Z,27.00
2019-04-10T10:25:08.671Z,26.33
2019-04-10T10:27:37.145Z,28.03
2019-04-10T10:30:09.259Z,25.77
2019-04-10T10:32:39.171Z,27.27
2019-04-10T10:35:09.316Z,27.97
2019-04-10T10:37:38.874Z,26.80
2019-04-10T10:40:08.849Z,27.50
2019-04-10T10:42:39.609Z,28.53
2019-04-10T10:45:10.610Z,28.80
2019-04-10T10:47:40.336Z,27.70
2019-04-10T10:50:10.127Z,27.97
2019-04-10T10:52:39.624Z,29.33
2019-04-10T10:55:09.656Z,27.93
2019-04-10T10:57:39.453Z,26.80
2019-04-10T11:00:13.038Z,28.67
2019-04-10T11:02:40.076Z,26.60
2019-04-10T11:05:08.919Z,26.47
2019-04-10T11:07:38.668Z,26.43
2019-04-10T11:10:08.491Z,25.03
2019-04-10T11:12:38.451Z,22.87
2019-04-10T11:15:07.839Z,22.97
2019-04-10T11:17:37.991Z,24.37
2019-04-10T11:20:10.311Z,20.50
2019-04-10T11:22:39.830Z,22.63
2019-04-10T11:25:09.016Z,21.73
2019-04-10T11:27:39.191Z,21.67
2019-04-10T11:30:08.515Z,20.83
2019-04-10T11:32:38.195Z,21.60
2019-04-10T11:35:07.755Z,21.40
2019-04-10T11:37:43.506Z,22.10
2019-04-10T11:40:08.829Z,21.30
2019-04-10T11:42:40.065Z,21.50
2019-04-10T11:45:10.507Z,21.70
2019-04-10T11:47:39.321Z,21.07
2019-04-10T11:52:45.236Z,20.57
2019-04-10T11:55:13.919Z,22.50
2019-04-10T11:57:42.126Z,20.70
2019-04-10T12:00:16.975Z,21.40
2019-04-10T12:02:43.984Z,20.20
2019-04-10T12:05:18.152Z,19.63
2019-04-10T12:08:10.718Z,19.77
2019-04-10T12:12:43.800Z,19.57
2019-04-10T12:15:12.514Z,20.23
2019-04-10T12:17:42.983Z,20.77
2019-04-10T12:20:11.452Z,20.23
2019-04-10T12:22:40.707Z,21.77
2019-04-10T12:25:10.230Z,20.73
2019-04-10T12:27:39.042Z,21.03
2019-04-10T12:30:11.381Z,23.07
2019-04-10T12:32:40.971Z,22.47
2019-04-10T12:35:10.856Z,21.87
2019-04-10T12:37:39.520Z,21.53
2019-04-10T12:40:09.750Z,20.80
2019-04-10T12:42:38.706Z,20.00
2019-04-10T12:45:08.347Z,23.20
2019-04-10T12:47:37.705Z,20.53
2019-04-10T12:50:08.075Z,21.87
2019-04-10T12:52:36.836Z,22.07
2019-04-10T12:55:06.289Z,21.63
2019-04-10T12:57:34.954Z,21.90
2019-04-10T13:00:05.174Z,23.33
2019-04-10T13:02:34.362Z,22.53
2019-04-10T13:05:03.275Z,23.17
2019-04-10T13:07:31.848Z,23.43
2019-04-10T13:10:00.321Z,24.00
2019-04-10T13:12:29.321Z,24.37
2019-04-10T13:14:59.074Z,23.47
2019-04-10T13:17:28.919Z,22.97
2019-04-10T13:19:57.591Z,23.53
2019-04-10T13:22:26.514Z,22.70
2019-04-10T13:24:55.071Z,22.77
2019-04-10T13:27:23.653Z,22.63
2019-04-10T13:29:52.260Z,23.83
2019-04-10T13:32:20.803Z,24.60
2019-04-10T13:34:49.367Z,23.17
2019-04-10T13:37:18.039Z,22.53
2019-04-10T13:39:46.826Z,22.60
2019-04-10T13:42:15.418Z,22.37
2019-04-10T13:44:43.960Z,22.47
2019-04-10T13:47:13.386Z,22.40
2019-04-10T13:49:42.063Z,23.27
2019-04-10T13:52:10.648Z,23.27
2019-04-10T13:54:39.132Z,23.23
2019-04-10T13:57:07.825Z,23.23
2019-04-10T13:59:37.282Z,22.33
2019-04-10T14:02:07.481Z,23.10
2019-04-10T14:04:36.037Z,22.93
2019-04-10T14:07:04.851Z,23.13
2019-04-10T14:09:40.644Z,22.57
2019-04-10T14:12:04.038Z,22.17
2019-04-10T14:14:32.908Z,23.53
2019-04-10T14:17:04.119Z,22.73
2019-04-10T14:19:31.976Z,23.43
2019-04-10T14:22:01.695Z,22.97
2019-04-10T14:24:40.403Z,22.50
2019-04-10T14:27:02.120Z,22.63
2019-04-10T14:29:30.768Z,23.87
2019-04-10T14:32:00.958Z,23.70
2019-04-10T14:34:30.421Z,22.60
2019-04-10T14:36:59.011Z,23.13
2019-04-10T14:39:27.892Z,23.70
2019-04-10T14:41:56.437Z,23.03
2019-04-10T14:44:25.083Z,24.90
2019-04-10T14:46:53.872Z,23.83
2019-04-10T14:49:22.488Z,23.07
2019-04-10T14:51:50.966Z,23.77
2019-04-10T14:54:19.683Z,22.87
2019-04-10T14:56:48.459Z,22.67
2019-04-10T14:59:17.822Z,22.73
2019-04-10T15:01:46.377Z,22.87
2019-04-10T15:04:15.128Z,20.80
2019-04-10T15:06:43.826Z,22.13
2019-04-10T15:09:22.147Z,21.83
2019-04-10T15:11:48.932Z,22.03
2019-04-10T15:14:17.550Z,22.33
2019-04-10T15:16:54.440Z,23.77
2019-04-10T15:19:16.319Z,24.93
2019-04-10T15:21:45.109Z,28.27
2019-04-10T15:24:13.713Z,23.30
2019-04-10T15:26:42.265Z,22.90
2019-04-10T15:29:12.137Z,23.40
2019-04-10T15:31:41.757Z,24.33
2019-04-10T15:34:10.503Z,22.00
2019-04-10T15:36:40.087Z,23.13
2019-04-10T15:39:08.892Z,22.60
2019-04-10T15:41:37.430Z,24.17
2019-04-10T15:44:09.889Z,23.73
2019-04-10T15:46:39.367Z,23.43
2019-04-10T15:49:09.082Z,24.63
2019-04-10T15:51:37.616Z,25.80
2019-04-10T15:54:06.193Z,24.27
2019-04-10T15:56:34.745Z,24.47
2019-04-10T15:59:03.926Z,23.20
2019-04-10T16:01:33.059Z,23.00
2019-04-10T16:04:01.666Z,22.40
2019-04-10T16:06:31.205Z,24.23
2019-04-10T16:09:00.924Z,23.63
2019-04-10T16:11:43.815Z,23.40
2019-04-10T16:14:22.063Z,22.57
2019-04-10T16:16:44.509Z,22.97
2019-04-10T16:19:14.634Z,23.43
2019-04-10T16:21:43.730Z,23.50
2019-04-10T16:24:14.457Z,24.00
2019-04-10T16:26:43.351Z,23.03
2019-04-10T16:29:11.929Z,22.97
2019-04-10T16:31:40.513Z,22.77
2019-04-10T16:34:09.228Z,22.10
2019-04-10T16:36:37.804Z,22.00
2019-04-10T16:39:09.663Z,22.03
2019-04-10T16:41:38.162Z,21.87
2019-04-10T16:44:06.736Z,22.10
2019-04-10T16:46:36.177Z,22.60
2019-04-10T16:49:04.831Z,19.83
2019-04-10T16:51:34.221Z,20.37
2019-04-10T16:54:04.218Z,20.50
2019-04-10T16:56:33.876Z,22.30
2019-04-10T16:59:02.574Z,22.93
2019-04-10T17:01:31.102Z,21.73
2019-04-10T17:04:00.717Z,21.37
2019-04-10T17:06:30.321Z,20.80
2019-04-10T17:09:00.615Z,18.57
2019-04-10T17:11:30.749Z,19.13
2019-04-10T17:13:59.429Z,19.47
2019-04-10T17:16:28.093Z,20.27
2019-04-10T17:18:57.208Z,18.63
2019-04-10T17:21:29.012Z,20.73
2019-04-10T17:23:56.663Z,20.67
2019-04-10T17:26:26.620Z,20.07
2019-04-10T17:28:55.194Z,20.93
2019-04-10T17:31:24.646Z,18.70
2019-04-10T17:33:54.343Z,19.43
2019-04-10T17:36:23.077Z,22.00
2019-04-10T17:38:51.597Z,21.30
2019-04-10T17:41:21.730Z,19.00
2019-04-10T17:43:51.566Z,19.17
2019-04-10T17:46:20.213Z,19.70
2019-04-10T17:48:49.591Z,17.33
2019-04-10T17:51:19.653Z,18.53
2019-04-10T17:53:49.420Z,18.23
2019-04-10T17:56:18.049Z,18.33
2019-04-10T17:58:46.562Z,17.43
2019-04-10T18:01:16.776Z,16.90
2019-04-10T18:03:51.710Z,17.33
2019-04-10T18:06:15.608Z,18.00
2019-04-10T18:08:45.033Z,17.47
2019-04-10T18:11:14.174Z,18.17
2019-04-10T18:13:42.839Z,17.60
2019-04-10T18:16:11.308Z,18.00
2019-04-10T18:18:40.595Z,16.40
2019-04-10T18:21:09.244Z,16.63
2019-04-10T18:23:37.755Z,16.10
2019-04-10T18:26:06.725Z,13.57
2019-04-10T18:28:36.423Z,16.03
2019-04-10T18:31:05.047Z,13.60
2019-04-10T18:33:34.351Z,13.60
2019-04-10T18:36:03.029Z,13.60
2019-04-10T18:38:31.596Z,13.07
2019-04-10T18:41:03.693Z,13.63
2019-04-10T18:43:30.372Z,12.40
2019-04-10T18:46:08.742Z,14.40
2019-04-10T18:48:29.384Z,15.07
2019-04-10T18:50:59.351Z,15.17
2019-04-10T18:53:28.928Z,14.93
2019-04-10T18:55:57.555Z,14.67
2019-04-10T18:58:27.840Z,14.30
2019-04-10T19:01:07.186Z,14.07
2019-04-10T19:03:48.686Z,13.73
2019-04-10T19:06:24.637Z,13.77
2019-04-10T19:09:04.525Z,15.00
2019-04-10T19:11:26.455Z,14.37
2019-04-10T19:13:53.651Z,16.43
2019-04-10T19:16:23.554Z,14.13
2019-04-10T19:18:52.251Z,17.07
2019-04-10T19:21:21.822Z,14.53
2019-04-10T19:23:50.409Z,14.53
2019-04-10T19:26:21.046Z,14.47
2019-04-10T19:28:50.731Z,13.70
2019-04-10T19:31:23.835Z,14.60
2019-04-10T19:33:51.234Z,13.80
2019-04-10T19:36:19.801Z,14.10
2019-04-10T19:38:49.524Z,12.47
2019-04-10T19:41:25.128Z,15.53
2019-04-10T19:43:48.619Z,15.23
2019-04-10T19:46:17.549Z,14.93
2019-04-10T19:48:48.943Z,14.90
2019-04-10T19:51:16.424Z,14.20
2019-04-10T19:53:45.780Z,13.33
2019-04-10T19:56:14.381Z,14.23
2019-04-10T19:58:44.100Z,13.83
2019-04-10T20:01:15.448Z,14.57
2019-04-10T20:03:43.994Z,15.33
2019-04-10T20:06:14.230Z,13.37
2019-04-10T20:08:43.884Z,13.33
2019-04-10T20:11:12.891Z,13.13
2019-04-10T20:13:41.408Z,13.53
2019-04-10T20:16:11.099Z,13.43
2019-04-10T20:18:39.698Z,13.90
2019-04-10T20:21:08.255Z,14.63
2019-04-10T20:23:36.731Z,13.93
2019-04-10T20:26:05.360Z,14.00
2019-04-10T20:28:33.825Z,14.30
2019-04-10T20:31:03.078Z,13.63
2019-04-10T20:33:32.642Z,13.63
2019-04-10T20:36:01.229Z,13.40
2019-04-10T20:38:31.837Z,13.17
2019-04-10T20:41:00.400Z,13.27
2019-04-10T20:43:30.543Z,12.23
2019-04-10T20:46:00.094Z,13.47
2019-04-10T20:48:28.760Z,12.67
2019-04-10T20:50:57.386Z,13.17
2019-04-10T20:53:26.996Z,13.47
2019-04-10T20:55:55.501Z,14.23
2019-04-10T20:58:25.259Z,13.33
2019-04-10T21:00:54.763Z,14.07
2019-04-10T21:03:23.273Z,13.13
2019-04-10T21:05:52.610Z,15.17
2019-04-10T21:08:22.047Z,14.00
2019-04-10T21:10:51.380Z,14.67
2019-04-10T21:13:21.930Z,15.13
2019-04-10T21:15:51.468Z,14.43
2019-04-10T21:18:21.205Z,12.67
2019-04-10T21:20:51.358Z,13.17
2019-04-10T21:23:19.909Z,12.53
2019-04-10T21:25:48.384Z,12.93
2019-04-10T21:28:16.951Z,13.13
2019-04-10T21:31:05.437Z,11.73
2019-04-10T21:33:38.880Z,12.67
2019-04-10T21:36:07.459Z,13.60
2019-04-10T21:38:36.551Z,12.93
2019-04-10T21:41:06.410Z,12.53
2019-04-10T21:43:35.295Z,12.70
2019-04-10T21:46:03.835Z,12.07
2019-04-10T21:48:32.993Z,12.03
2019-04-10T21:51:02.564Z,12.03
2019-04-10T21:53:31.766Z,12.00
2019-04-10T21:56:02.041Z,11.67
2019-04-10T21:58:30.705Z,11.43
2019-04-10T22:01:01.434Z,11.50
2019-04-10T22:03:30.115Z,11.63
2019-04-10T22:06:01.240Z,10.90
2019-04-10T22:08:41.357Z,11.57
2019-04-10T22:11:10.783Z,11.63
2019-04-10T22:13:40.063Z,11.50
2019-04-10T22:16:11.415Z,11.23
2019-04-10T22:18:40.076Z,11.40
2019-04-10T22:21:08.716Z,11.93
2019-04-10T22:23:37.374Z,11.17
2019-04-10T22:26:05.936Z,11.40
2019-04-10T22:28:34.507Z,11.63
2019-04-10T22:31:03.058Z,10.63
2019-04-10T22:33:32.060Z,10.47
2019-04-10T22:36:00.658Z,11.73
2019-04-10T22:38:29.407Z,9.80
2019-04-10T22:40:58.181Z,10.53
2019-04-10T22:43:27.843Z,10.67
2019-04-10T22:45:57.002Z,11.60
2019-04-10T22:48:25.499Z,10.47
2019-04-10T22:50:54.065Z,10.23
2019-04-10T22:53:23.417Z,10.57
2019-04-10T22:55:52.844Z,10.73
2019-04-10T22:58:21.425Z,10.30
2019-04-10T23:00:50.944Z,10.93
2019-04-10T23:03:20.205Z,10.77
2019-04-10T23:05:48.959Z,10.63
2019-04-10T23:08:17.737Z,11.13
2019-04-10T23:10:46.363Z,10.83
2019-04-10T23:13:16.000Z,11.03
2019-04-10T23:15:44.791Z,11.00
2019-04-10T23:18:14.929Z,10.90
2019-04-10T23:20:43.894Z,10.77
2019-04-10T23:23:12.639Z,10.53
2019-04-10T23:25:41.258Z,11.00
2019-04-10T23:28:09.810Z,10.73
2019-04-10T23:30:39.198Z,10.70
2019-04-10T23:33:08.129Z,10.97
2019-04-10T23:35:37.806Z,11.50
2019-04-10T23:38:07.021Z,11.30
2019-04-10T23:40:36.758Z,11.23
2019-04-10T23:43:12.954Z,11.23
2019-04-10T23:45:35.654Z,10.60
2019-04-10T23:48:04.558Z,10.87
2019-04-10T23:50:34.409Z,9.93
2019-04-10T23:53:03.081Z,12.23
2019-04-10T23:55:32.266Z,10.87
2019-04-10T23:58:01.889Z,11.60
